Saint Louis, Missouri
Current Conditions -  °F | °C
As of 12:25 PM on Thursday 27 Nov 2014 (Local Time) from KCPS Reporting Station
Broken Clouds Broken Clouds  
Wind Chill: -5°   Ceiling: 3600
Heat Index:   Visibility: 10mi
Dew Point: -4°   Wind: 13mph
Humidity: 70%   Direction: 320°NW
Pressure: 30.47"   Gusts: NA
Location:  38.63°N, 90.24°W
Report Text: KCPS 271825Z 32011KT 10SM SCT027 BKN036 01/M04 A3047 RMK AO2 T00061044
Loading
Personal Weather Stations






























Interactive Weather Map New forecast layout! Learn more

10-Day Weather Forecast

Advertisements
Track Severe Weather on mobile